Time;durP1;ratioP1;P1;durP2;ratioP2;P2;SDS_P1;SDS_P2;PMS_P1;PMS_P2;Temp;Humidity;BMP_temperature;BMP_pressure;BME280_temperature;BME280_humidity;BME280_pressure;Samples;Min_cycle;Max_cycle;Signal;HPM_P1;HPM_P2
2021/12/21 00:01:00;;;;;;;12.97;6.97;;;-1.10;95.50;;;;;;5011801;28;20250;-91
2021/12/21 00:03:27;;;;;;;9.63;7.13;;;-1.10;95.80;;;;;;5008385;28;20558;-91
2021/12/21 00:05:54;;;;;;;11.10;6.90;;;-1.10;95.90;;;;;;5010929;28;20282;-92
2021/12/21 00:08:23;;;;;;;14.30;7.10;;;-1.10;96.20;;;;;;5011244;28;20199;-91
2021/12/21 00:10:50;;;;;;;12.90;6.43;;;-1.20;95.80;;;;;;5010167;28;20766;-91
2021/12/21 00:13:38;;;;;;;14.07;7.47;;;-1.20;96.00;;;;;;5015621;28;20195;-91
2021/12/21 00:16:14;;;;;;;11.53;6.53;;;-1.20;96.00;;;;;;5008715;28;20281;-91
2021/12/21 00:18:46;;;;;;;13.70;7.13;;;-1.30;96.00;;;;;;5010128;28;20253;-91
2021/12/21 00:21:23;;;;;;;10.87;6.77;;;-1.30;96.10;;;;;;5008957;28;20334;-91
2021/12/21 00:23:58;;;;;;;13.40;6.77;;;-1.30;96.20;;;;;;5010670;28;20207;-92
2021/12/21 00:26:25;;;;;;;12.77;6.80;;;-1.30;96.40;;;;;;5011190;28;20233;-92
2021/12/21 00:28:56;;;;;;;15.97;7.13;;;-1.20;96.30;;;;;;5002964;28;20226;-91
2021/12/21 00:31:24;;;;;;;13.67;7.43;;;-1.30;96.10;;;;;;5010129;28;20318;-92
2021/12/21 00:33:51;;;;;;;12.43;6.93;;;-1.30;96.40;;;;;;5012729;28;20275;-92
2021/12/21 00:36:20;;;;;;;12.57;6.60;;;-1.20;96.40;;;;;;5006282;28;20753;-91
2021/12/21 00:38:48;;;;;;;10.93;6.50;;;-1.20;96.00;;;;;;5015668;28;20206;-92
2021/12/21 00:41:21;;;;;;;11.80;7.00;;;-1.10;95.70;;;;;;5013896;28;20591;-91
2021/12/21 00:43:48;;;;;;;12.27;6.60;;;-1.20;95.70;;;;;;5010619;28;20207;-92
2021/12/21 00:46:16;;;;;;;13.40;6.40;;;-1.20;95.70;;;;;;5001820;28;20225;-91
2021/12/21 00:48:51;;;;;;;12.27;6.90;;;-1.20;95.60;;;;;;5013023;28;20203;-92
2021/12/21 00:51:20;;;;;;;10.00;6.50;;;-1.10;95.40;;;;;;5015814;28;20222;-92
2021/12/21 00:53:46;;;;;;;11.00;5.80;;;-1.20;95.30;;;;;;5010376;28;20290;-92
2021/12/21 00:56:29;;;;;;;9.63;6.30;;;-1.10;95.40;;;;;;5005551;28;20245;-92
2021/12/21 00:58:57;;;;;;;12.90;6.10;;;-1.10;95.30;;;;;;5007347;28;20294;-91
2021/12/21 01:01:24;;;;;;;10.33;5.87;;;-1.20;95.10;;;;;;5011152;28;20578;-92
2021/12/21 01:03:53;;;;;;;12.53;5.90;;;-1.20;95.20;;;;;;5011278;28;20203;-92
2021/12/21 01:06:25;;;;;;;12.87;6.00;;;-1.10;95.10;;;;;;5021542;28;20226;-92
2021/12/21 01:09:07;;;;;;;13.13;6.33;;;-1.10;94.90;;;;;;5006459;28;20215;-91
2021/12/21 01:11:39;;;;;;;11.43;6.17;;;-1.20;94.80;;;;;;5011111;28;20223;-92
2021/12/21 01:14:37;;;;;;;8.23;5.50;;;-1.30;94.60;;;;;;5010604;28;20238;-92
2021/12/21 01:17:08;;;;;;;14.87;5.73;;;-1.50;95.20;;;;;;5017417;28;20231;-91
2021/12/21 01:19:39;;;;;;;10.23;6.00;;;-1.60;95.60;;;;;;5009934;28;20227;-92
2021/12/21 01:22:14;;;;;;;11.00;6.20;;;-1.60;96.00;;;;;;5014771;28;20585;-92
2021/12/21 01:30:16;;;;;;;10.87;5.30;;;-1.40;95.50;;;;;;5013017;28;20210;-92
2021/12/21 01:32:58;;;;;;;12.10;5.93;;;-1.40;95.30;;;;;;5011922;28;20213;-92
2021/12/21 01:35:31;;;;;;;12.77;6.27;;;-1.30;95.10;;;;;;5008484;28;20310;-92
2021/12/21 01:38:04;;;;;;;12.43;5.83;;;-1.30;94.90;;;;;;5014142;28;20203;-93
2021/12/21 01:43:44;;;;;;;10.07;5.57;;;-1.40;94.60;;;;;;5006958;28;20199;-92
2021/12/21 01:51:46;;;;;;;8.53;5.40;;;-1.40;94.60;;;;;;5013346;28;20234;-92
2021/12/21 01:56:56;;;;;;;11.47;5.43;;;-1.60;94.50;;;;;;5017747;28;20223;-92
2021/12/21 01:59:24;;;;;;;13.77;6.10;;;-1.70;94.70;;;;;;5020171;28;20198;-92
2021/12/21 02:01:51;;;;;;;11.60;6.03;;;-1.80;95.20;;;;;;5012739;28;20230;-92
2021/12/21 02:04:18;;;;;;;10.93;5.17;;;-1.80;95.40;;;;;;5012598;28;20244;-91
2021/12/21 02:06:46;;;;;;;9.77;5.53;;;-1.80;95.30;;;;;;5007015;28;20831;-91
2021/12/21 02:09:12;;;;;;;10.60;5.50;;;-1.80;95.30;;;;;;5008207;28;20621;-92
2021/12/21 02:11:39;;;;;;;11.60;5.17;;;-1.80;95.20;;;;;;5015768;28;20281;-91
2021/12/21 02:14:09;;;;;;;9.53;4.60;;;-1.80;95.40;;;;;;5009831;28;20229;-92
2021/12/21 02:19:25;;;;;;;8.50;4.60;;;-1.90;95.80;;;;;;5009094;28;20234;-92
2021/12/21 02:22:04;;;;;;;8.73;5.10;;;-1.90;96.30;;;;;;4997516;28;20446;-92
2021/12/21 02:24:40;;;;;;;9.23;5.43;;;-1.80;95.90;;;;;;5012082;28;20654;-92
2021/12/21 02:27:18;;;;;;;14.07;4.80;;;-1.80;95.40;;;;;;5013543;28;20247;-92
2021/12/21 02:29:45;;;;;;;11.67;5.30;;;-1.70;95.10;;;;;;5008548;28;20279;-92
2021/12/21 02:32:12;;;;;;;9.97;4.40;;;-1.70;94.70;;;;;;4995466;28;20226;-92
2021/12/21 02:34:42;;;;;;;10.13;5.33;;;-1.80;94.80;;;;;;5008081;28;20286;-92
2021/12/21 02:37:10;;;;;;;8.60;4.90;;;-1.80;95.00;;;;;;5010871;28;20254;-92
2021/12/21 02:39:38;;;;;;;8.20;4.53;;;-1.90;94.80;;;;;;4996367;28;20206;-92
2021/12/21 02:42:05;;;;;;;8.43;5.00;;;-1.90;95.00;;;;;;5025442;28;20282;-92
2021/12/21 02:44:33;;;;;;;10.30;4.60;;;-1.90;94.70;;;;;;5028062;28;20217;-92
2021/12/21 02:47:00;;;;;;;7.43;4.77;;;-1.80;94.40;;;;;;5021771;28;20255;-91
2021/12/21 02:49:27;;;;;;;11.63;4.90;;;-1.90;94.10;;;;;;5009235;28;20195;-91
2021/12/21 02:52:01;;;;;;;7.97;5.00;;;-1.90;93.90;;;;;;5011567;28;20310;-92
2021/12/21 02:57:10;;;;;;;7.87;5.13;;;-2.20;94.20;;;;;;5004629;28;20694;-92
2021/12/21 02:59:37;;;;;;;8.27;5.10;;;-2.20;95.00;;;;;;5011197;28;20285;-91
2021/12/21 03:02:04;;;;;;;9.17;5.13;;;-2.30;95.00;;;;;;5011194;28;20240;-92
2021/12/21 03:04:31;;;;;;;12.53;5.07;;;-2.30;95.00;;;;;;4994205;28;20285;-92
2021/12/21 03:09:55;;;;;;;12.60;5.53;;;-2.30;94.90;;;;;;5008805;28;20662;-91
2021/12/21 03:13:50;;;;;;;9.27;5.70;;;-2.30;94.80;;;;;;4991543;28;20222;-91
2021/12/21 03:15:19;;;;;;;8.53;5.77;;;-2.30;94.90;;;;;;5010660;28;20204;-91
2021/12/21 03:17:46;;;;;;;10.10;6.33;;;-2.30;94.60;;;;;;5010050;28;20222;-92
2021/12/21 03:22:55;;;;;;;11.70;7.07;;;-2.30;94.50;;;;;;5004940;28;20564;-91
2021/12/21 03:25:23;;;;;;;16.83;7.90;;;-2.20;94.30;;;;;;5011877;28;20269;-91
2021/12/21 03:27:50;;;;;;;13.50;7.70;;;-2.30;94.50;;;;;;5011066;28;20207;-92
2021/12/21 03:30:17;;;;;;;18.67;8.37;;;-2.30;94.60;;;;;;5010148;28;20204;-92
2021/12/21 03:32:45;;;;;;;30.67;8.50;;;-2.40;94.80;;;;;;5011694;28;20717;-91
2021/12/21 03:35:12;;;;;;;14.57;8.87;;;-2.40;95.10;;;;;;5011093;28;20198;-91
2021/12/21 03:37:39;;;;;;;16.53;8.63;;;-2.50;95.30;;;;;;5010206;28;20210;-91
2021/12/21 03:40:33;;;;;;;14.97;8.70;;;-2.60;95.70;;;;;;5013586;28;20309;-91
2021/12/21 03:43:18;;;;;;;14.07;8.37;;;-2.70;95.70;;;;;;5010821;28;20273;-91
2021/12/21 03:46:01;;;;;;;14.70;8.73;;;-2.70;95.70;;;;;;5011502;28;20228;-92
2021/12/21 03:48:28;;;;;;;16.30;9.13;;;-2.80;96.10;;;;;;5008896;28;20202;-91
2021/12/21 03:51:16;;;;;;;14.10;7.73;;;-2.70;95.80;;;;;;5006235;28;20675;-91
2021/12/21 03:53:45;;;;;;;12.77;8.03;;;-2.70;95.70;;;;;;5004727;28;20297;-92
2021/12/21 03:59:14;;;;;;;12.80;8.27;;;-2.60;95.00;;;;;;5006675;28;20718;-92
2021/12/21 04:01:41;;;;;;;14.13;7.80;;;-2.50;94.50;;;;;;5010571;28;20258;-92
2021/12/21 04:07:09;;;;;;;15.70;7.60;;;-2.50;94.60;;;;;;5007124;28;20586;-92
2021/12/21 04:09:36;;;;;;;11.73;7.47;;;-2.50;94.10;;;;;;5008937;28;20208;-92
2021/12/21 04:14:47;;;;;;;13.27;7.50;;;-2.60;94.40;;;;;;5010287;28;20210;-92
2021/12/21 04:17:21;;;;;;;14.33;7.40;;;-2.60;94.50;;;;;;5009277;28;20237;-91
2021/12/21 04:19:50;;;;;;;15.30;7.23;;;-2.40;94.30;;;;;;5008490;28;20751;-92
2021/12/21 04:22:18;;;;;;;12.07;7.43;;;-2.30;94.00;;;;;;4980207;28;21156;-92
2021/12/21 04:24:45;;;;;;;10.63;7.13;;;-2.30;93.90;;;;;;5011972;28;20228;-91
2021/12/21 04:29:54;;;;;;;11.23;7.27;;;-2.20;93.80;;;;;;5007652;28;20650;-91
2021/12/21 04:32:21;;;;;;;13.60;7.07;;;-2.10;94.10;;;;;;5014614;28;20236;-92
2021/12/21 04:34:48;;;;;;;10.20;7.23;;;-2.00;93.90;;;;;;5013223;28;20291;-91
2021/12/21 04:37:16;;;;;;;12.10;6.60;;;-1.80;93.60;;;;;;5020313;28;20225;-92
2021/12/21 04:39:48;;;;;;;9.67;5.13;;;-1.80;93.90;;;;;;5017553;28;20641;-91
2021/12/21 04:42:16;;;;;;;11.17;5.53;;;-1.90;94.10;;;;;;5012513;28;20238;-92
2021/12/21 04:44:43;;;;;;;8.27;5.53;;;-1.80;94.10;;;;;;5013366;28;20209;-92
2021/12/21 04:47:10;;;;;;;8.57;4.97;;;-1.80;94.20;;;;;;5016542;28;20306;-92
2021/12/21 04:52:17;;;;;;;9.07;4.93;;;-1.80;94.70;;;;;;5013352;28;20674;-92
2021/12/21 04:54:44;;;;;;;8.43;4.53;;;-1.70;94.50;;;;;;5014317;28;20739;-92
2021/12/21 04:57:11;;;;;;;6.97;4.40;;;-1.80;94.50;;;;;;5014193;28;20758;-92
2021/12/21 04:59:40;;;;;;;7.87;4.80;;;-1.90;94.80;;;;;;5014493;28;20215;-92
2021/12/21 05:02:07;;;;;;;9.53;4.77;;;-1.80;95.00;;;;;;5016891;28;20229;-92
2021/12/21 05:04:41;;;;;;;7.97;5.03;;;-1.80;95.00;;;;;;4992645;28;20569;-92
2021/12/21 05:07:08;;;;;;;10.90;5.53;;;-1.80;95.10;;;;;;4991511;28;20226;-92
2021/12/21 05:09:42;;;;;;;8.07;4.50;;;-1.80;95.20;;;;;;4984612;28;20834;-92
2021/12/21 05:12:13;;;;;;;9.30;4.47;;;-1.80;95.30;;;;;;5013388;28;20686;-92
2021/12/21 05:17:23;;;;;;;10.17;5.27;;;-1.80;95.00;;;;;;5007928;28;20230;-92
2021/12/21 05:19:50;;;;;;;8.77;5.03;;;-1.90;95.20;;;;;;4995889;28;20680;-92
2021/12/21 05:22:21;;;;;;;7.50;4.70;;;-2.00;95.40;;;;;;5014574;28;20233;-92
2021/12/21 05:24:50;;;;;;;8.93;5.47;;;-2.10;95.60;;;;;;5006953;28;20350;-92
2021/12/21 05:30:00;;;;;;;8.33;4.70;;;-2.30;96.20;;;;;;5012489;28;20207;-92
2021/12/21 05:32:28;;;;;;;8.90;4.90;;;-2.30;96.20;;;;;;4994584;28;20228;-91
2021/12/21 05:34:55;;;;;;;8.13;5.07;;;-2.30;96.20;;;;;;5017175;28;20600;-91
2021/12/21 05:37:22;;;;;;;10.87;4.70;;;-2.30;96.30;;;;;;5013733;28;20254;-92
2021/12/21 05:42:30;;;;;;;12.93;4.57;;;-2.30;96.30;;;;;;4983828;28;20227;-92
2021/12/21 05:44:57;;;;;;;9.47;5.00;;;-2.20;96.20;;;;;;5012665;28;20311;-92
2021/12/21 05:50:33;;;;;;;8.47;4.83;;;-1.90;94.70;;;;;;4994641;28;20219;-91
2021/12/21 05:53:01;;;;;;;7.90;4.77;;;-1.80;94.40;;;;;;5012027;28;20196;-90
2021/12/21 05:55:28;;;;;;;8.10;4.70;;;-1.80;94.30;;;;;;5008600;28;20708;-91
2021/12/21 05:57:55;;;;;;;9.17;4.80;;;-1.70;94.40;;;;;;5013452;28;20207;-91
2021/12/21 06:00:26;;;;;;;7.80;5.10;;;-1.60;94.10;;;;;;5013341;28;20210;-91
2021/12/21 06:02:56;;;;;;;8.40;5.33;;;-1.50;93.70;;;;;;5005618;28;20335;-92
2021/12/21 06:05:23;;;;;;;10.10;5.27;;;-1.40;93.70;;;;;;5012517;28;20214;-90
2021/12/21 06:08:20;;;;;;;8.27;4.90;;;-1.40;93.80;;;;;;5013195;28;20192;-94
2021/12/21 06:10:49;;;;;;;10.50;5.17;;;-1.50;93.70;;;;;;5013896;28;20590;-91
2021/12/21 06:25:22;;;;;;;9.47;5.20;;;-1.10;94.10;;;;;;5014548;28;20211;-89
2021/12/21 06:27:50;;;;;;;9.77;4.70;;;-1.10;93.80;;;;;;5011196;28;20254;-90
2021/12/21 06:30:17;;;;;;;8.87;5.20;;;-1.10;93.80;;;;;;5009582;28;20195;-88
2021/12/21 06:32:44;;;;;;;10.83;5.10;;;-1.30;93.70;;;;;;5012761;28;20207;-87
2021/12/21 06:35:15;;;;;;;9.80;5.43;;;-1.40;94.10;;;;;;5015343;28;20287;-90
2021/12/21 06:37:42;;;;;;;9.40;5.10;;;-1.40;94.30;;;;;;5019767;28;20226;-89
2021/12/21 06:40:11;;;;;;;7.97;5.17;;;-1.40;94.40;;;;;;5025632;28;20766;-88
2021/12/21 06:42:41;;;;;;;8.60;5.20;;;-1.40;94.50;;;;;;5016113;28;20306;-91
2021/12/21 06:45:12;;;;;;;8.47;5.07;;;-1.40;94.50;;;;;;5015168;28;20196;-90
2021/12/21 06:53:11;;;;;;;9.07;5.43;;;-1.40;94.50;;;;;;4995927;28;20208;-88
2021/12/21 06:55:39;;;;;;;7.37;5.23;;;-1.30;94.70;;;;;;5012247;28;20233;-87
2021/12/21 06:58:08;;;;;;;9.87;5.43;;;-1.30;94.50;;;;;;5014534;28;20203;-86
2021/12/21 07:00:37;;;;;;;7.97;5.40;;;-1.30;94.50;;;;;;5022340;28;20236;-87
2021/12/21 07:03:04;;;;;;;8.80;5.77;;;-1.20;94.50;;;;;;4994326;28;20199;-88
2021/12/21 07:05:36;;;;;;;7.27;5.07;;;-1.10;93.80;;;;;;5015856;28;20222;-87
2021/12/21 07:08:04;;;;;;;8.93;5.80;;;-1.00;93.90;;;;;;5021475;28;20199;-88
2021/12/21 07:10:32;;;;;;;12.43;6.53;;;-1.10;93.80;;;;;;5006648;28;20223;-90
2021/12/21 07:18:30;;;;;;;10.80;6.50;;;-1.20;93.90;;;;;;5013421;28;20689;-88
2021/12/21 07:21:02;;;;;;;10.83;6.50;;;-1.10;93.80;;;;;;5017614;28;20701;-88
2021/12/21 07:23:31;;;;;;;11.93;7.13;;;-0.90;94.20;;;;;;5013475;28;20195;-89
2021/12/21 07:25:58;;;;;;;14.50;8.03;;;-0.80;93.80;;;;;;5013282;28;20251;-88
2021/12/21 07:28:26;;;;;;;15.90;8.27;;;-0.70;93.80;;;;;;5011434;28;20207;-88
2021/12/21 07:30:54;;;;;;;15.83;7.83;;;-0.70;93.20;;;;;;5013674;28;20232;-88
2021/12/21 07:33:21;;;;;;;14.73;8.80;;;-0.80;93.40;;;;;;5010381;28;20211;-87
2021/12/21 07:35:49;;;;;;;18.20;9.13;;;-1.00;93.80;;;;;;5014551;28;20229;-88
2021/12/21 07:38:19;;;;;;;17.73;9.73;;;-0.90;93.80;;;;;;5011346;28;20204;-90
2021/12/21 07:40:47;;;;;;;18.60;9.37;;;-1.00;93.80;;;;;;5010982;28;20250;-88
2021/12/21 07:43:15;;;;;;;16.13;9.40;;;-1.10;93.80;;;;;;5012273;28;20207;-89
2021/12/21 07:45:43;;;;;;;15.97;9.27;;;-1.00;93.80;;;;;;5009916;28;20235;-89
2021/12/21 07:48:11;;;;;;;16.77;10.10;;;-1.00;93.90;;;;;;4994132;28;20316;-88
2021/12/21 07:50:40;;;;;;;19.20;10.57;;;-1.00;94.40;;;;;;5014348;28;20223;-89
2021/12/21 07:53:07;;;;;;;15.13;10.10;;;-0.90;94.10;;;;;;4995091;28;20199;-88
2021/12/21 07:55:36;;;;;;;16.20;10.27;;;-1.00;93.80;;;;;;5017615;28;20591;-89
2021/12/21 07:58:03;;;;;;;18.17;11.00;;;-1.00;94.40;;;;;;5014523;28;20199;-89
2021/12/21 08:00:32;;;;;;;18.53;10.87;;;-1.10;94.10;;;;;;5008851;28;20227;-91
2021/12/21 08:03:03;;;;;;;20.47;11.37;;;-1.20;94.80;;;;;;4980541;28;20230;-90
2021/12/21 08:05:33;;;;;;;17.00;11.23;;;-1.00;94.50;;;;;;5000534;28;20254;-89
2021/12/21 08:08:10;;;;;;;17.60;11.40;;;-0.90;94.40;;;;;;4988529;28;20235;-89
2021/12/21 08:18:48;;;;;;;18.93;11.17;;;-0.70;94.00;;;;;;5017730;28;20203;-93
2021/12/21 08:21:55;;;;;;;20.00;11.97;;;-0.50;93.90;;;;;;5006307;28;20314;-92
2021/12/21 08:24:22;;;;;;;21.70;12.77;;;-0.50;93.90;;;;;;5025144;28;20282;-85
2021/12/21 08:48:14;;;;;;;21.53;11.83;;;-0.30;93.20;;;;;;5162559;23;20594;-90
2021/12/21 08:50:42;;;;;;;20.20;11.90;;;-0.20;92.90;;;;;;5022854;28;20249;-93
2021/12/21 08:56:55;;;;;;;16.80;11.20;;;0.20;93.20;;;;;;5027788;28;20166;-92
2021/12/21 08:59:26;;;;;;;17.73;10.87;;;0.20;92.20;;;;;;5016606;28;20206;-92
2021/12/21 09:01:54;;;;;;;21.93;11.30;;;0.20;92.30;;;;;;4988467;28;20240;-87
2021/12/21 09:04:22;;;;;;;18.87;11.27;;;0.20;92.40;;;;;;4985957;28;20714;-89
2021/12/21 09:09:33;;;;;;;16.33;10.13;;;0.70;90.90;;;;;;4982198;28;20208;-94
2021/12/21 09:35:56;;;;;;;14.35;9.68;;;5.60;51.30;;;;;;4966634;28;20193;-94
2021/12/21 09:41:46;;;;;;;13.97;9.87;;;3.90;60.70;;;;;;4936281;29;20727;-93
2021/12/21 09:45:07;;;;;;;15.10;9.83;;;3.20;65.90;;;;;;4974298;28;20573;-91
2021/12/21 09:47:35;;;;;;;14.70;9.17;;;2.80;71.80;;;;;;5000495;28;20219;-92
2021/12/21 09:50:04;;;;;;;18.10;10.07;;;2.90;69.60;;;;;;5021842;28;20373;-89
2021/12/21 09:52:33;;;;;;;17.63;10.27;;;2.60;73.50;;;;;;5037012;28;20317;-90
2021/12/21 09:55:00;;;;;;;15.50;9.47;;;2.50;77.30;;;;;;5018818;28;20242;-88
2021/12/21 09:57:31;;;;;;;11.40;9.10;;;2.40;75.20;;;;;;5019560;28;20195;-88
2021/12/21 10:00:00;;;;;;;12.60;8.43;;;2.30;74.40;;;;;;5022652;28;20572;-86
2021/12/21 10:02:33;;;;;;;13.20;9.60;;;2.30;74.80;;;;;;5028859;28;20223;-90
2021/12/21 10:05:04;;;;;;;19.80;9.20;;;2.20;77.60;;;;;;5004549;28;20204;-88
2021/12/21 10:07:31;;;;;;;17.40;9.10;;;2.30;77.70;;;;;;5003428;28;20231;-87
2021/12/21 10:10:18;;;;;;;11.97;7.80;;;2.40;77.60;;;;;;5018763;28;20226;-86
2021/12/21 10:12:48;;;;;;;13.50;9.30;;;2.40;76.70;;;;;;5005600;28;20673;-91
2021/12/21 10:15:17;;;;;;;16.07;8.77;;;2.60;77.40;;;;;;5016479;28;20534;-90
2021/12/21 10:17:52;;;;;;;10.37;7.87;;;2.50;76.90;;;;;;5019007;28;20236;-91
2021/12/21 10:20:32;;;;;;;9.40;7.67;;;2.40;76.20;;;;;;5014607;28;20205;-86
2021/12/21 10:23:08;;;;;;;11.77;7.43;;;2.30;74.50;;;;;;5024862;28;20223;-88
2021/12/21 10:25:41;;;;;;;10.37;7.50;;;2.10;75.40;;;;;;5023246;28;20578;-90
2021/12/21 10:30:52;;;;;;;12.80;8.77;;;1.50;78.90;;;;;;5022630;28;20234;-89
2021/12/21 10:33:27;;;;;;;11.93;7.90;;;1.60;80.00;;;;;;5020195;28;20783;-88
2021/12/21 10:35:56;;;;;;;10.70;8.10;;;2.00;78.60;;;;;;5033967;28;20254;-88
2021/12/21 10:38:49;;;;;;;10.73;7.77;;;1.80;79.30;;;;;;5018477;28;20195;-88
2021/12/21 10:44:21;;;;;;;11.40;8.17;;;2.10;79.00;;;;;;4979664;28;20188;-93
2021/12/21 11:13:25;;;;;;;11.50;7.83;;;3.10;66.20;;;;;;4965377;28;20671;-90
2021/12/21 11:15:55;;;;;;;9.97;7.93;;;2.80;67.40;;;;;;4996771;28;20238;-90
2021/12/21 11:18:25;;;;;;;9.47;7.47;;;2.40;73.70;;;;;;5015671;28;20301;-90
2021/12/21 11:20:56;;;;;;;9.00;7.20;;;2.40;75.20;;;;;;4988819;28;20234;-89
2021/12/21 11:23:54;;;;;;;13.60;8.30;;;2.40;74.10;;;;;;5006127;28;20753;-91
2021/12/21 11:26:27;;;;;;;10.03;8.00;;;2.10;76.70;;;;;;5025811;28;20218;-89
2021/12/21 11:29:19;;;;;;;11.40;7.57;;;1.80;78.50;;;;;;5037653;28;20194;-90
2021/12/21 11:31:58;;;;;;;9.13;7.07;;;2.20;78.70;;;;;;5030435;28;20306;-88
2021/12/21 11:34:32;;;;;;;10.47;7.47;;;2.20;76.90;;;;;;5017944;28;20282;-89
2021/12/21 11:39:42;;;;;;;11.50;7.03;;;2.10;78.10;;;;;;4958108;28;20648;-86
2021/12/21 11:46:02;;;;;;;9.77;6.87;;;1.80;78.50;;;;;;5015206;28;20945;-89
2021/12/21 11:51:25;;;;;;;13.17;8.03;;;1.50;81.10;;;;;;5027162;28;20651;-89
2021/12/21 11:53:54;;;;;;;13.37;7.87;;;1.40;82.10;;;;;;5020292;28;20302;-90
2021/12/21 12:00:32;;;;;;;13.03;8.57;;;1.50;81.80;;;;;;5017364;28;20213;-87
2021/12/21 12:03:36;;;;;;;12.63;8.23;;;1.00;84.50;;;;;;5016750;28;20569;-86
2021/12/21 12:06:06;;;;;;;12.17;8.00;;;1.10;86.50;;;;;;4996855;28;20199;-88
2021/12/21 12:11:45;;;;;;;14.83;9.17;;;1.40;85.20;;;;;;4996888;28;20274;-90
2021/12/21 12:14:14;;;;;;;11.93;7.80;;;1.40;84.10;;;;;;4998846;28;20203;-89
2021/12/21 12:16:44;;;;;;;14.37;8.30;;;1.60;83.10;;;;;;5120135;23;20253;-87
2021/12/21 12:19:18;;;;;;;12.67;7.83;;;1.60;82.70;;;;;;4999047;28;20271;-86
2021/12/21 12:21:54;;;;;;;12.17;8.27;;;1.30;84.80;;;;;;4997865;28;20231;-83
2021/12/21 12:24:23;;;;;;;11.60;7.80;;;1.30;84.30;;;;;;4997242;28;20199;-88
2021/12/21 12:26:58;;;;;;;14.67;7.90;;;1.50;82.50;;;;;;4995660;28;20196;-89
2021/12/21 12:29:26;;;;;;;12.47;7.83;;;1.50;81.60;;;;;;5005115;28;20217;-91
2021/12/21 12:32:02;;;;;;;11.90;8.13;;;1.50;81.30;;;;;;4996676;28;20235;-89
2021/12/21 12:34:38;;;;;;;10.77;7.63;;;1.40;82.50;;;;;;5001199;28;20208;-85
2021/12/21 12:37:18;;;;;;;13.70;8.07;;;1.40;81.30;;;;;;4976819;28;20605;-87
2021/12/21 12:39:47;;;;;;;13.50;8.37;;;1.50;81.60;;;;;;4998017;28;20214;-86
2021/12/21 12:42:18;;;;;;;12.23;8.37;;;1.40;82.00;;;;;;5000879;28;20250;-86
2021/12/21 12:44:49;;;;;;;10.77;7.67;;;1.50;81.80;;;;;;5001631;28;20598;-87
2021/12/21 12:47:29;;;;;;;14.27;8.30;;;1.50;82.20;;;;;;5014044;28;20229;-86
2021/12/21 13:00:51;;;;;;;14.37;8.43;;;1.40;82.80;;;;;;4977232;28;20524;-89
2021/12/21 13:06:43;;;;;;;11.57;7.97;;;1.20;82.90;;;;;;4988978;28;20698;-88
2021/12/21 13:09:13;;;;;;;12.97;8.47;;;1.00;84.50;;;;;;4998787;28;20730;-88
2021/12/21 13:11:41;;;;;;;13.33;8.00;;;0.90;86.40;;;;;;4999335;28;20666;-84
2021/12/21 13:14:11;;;;;;;12.90;8.23;;;0.70;86.30;;;;;;5003057;28;20207;-85
2021/12/21 13:16:51;;;;;;;11.17;7.93;;;0.70;87.10;;;;;;5177671;23;20239;-86
2021/12/21 13:19:19;;;;;;;12.73;8.63;;;0.70;86.20;;;;;;4994829;28;20210;-88
2021/12/21 13:21:56;;;;;;;16.80;8.53;;;0.60;87.40;;;;;;4998674;28;20266;-89
2021/12/21 13:24:29;;;;;;;13.63;8.50;;;0.70;86.30;;;;;;4999779;28;20726;-89
2021/12/21 13:26:58;;;;;;;15.17;9.27;;;0.70;86.30;;;;;;4998768;28;20230;-89
2021/12/21 13:29:29;;;;;;;14.83;8.73;;;0.60;87.20;;;;;;4998918;28;20196;-89
2021/12/21 13:31:59;;;;;;;16.77;9.73;;;0.40;88.80;;;;;;5005444;28;20226;-93
2021/12/21 13:34:30;;;;;;;14.37;9.13;;;0.20;90.10;;;;;;4992876;28;20200;-90
2021/12/21 13:37:00;;;;;;;15.87;9.17;;;0.30;90.00;;;;;;4995375;28;20235;-90
2021/12/21 13:39:31;;;;;;;15.87;9.50;;;0.30;90.20;;;;;;4991718;28;20257;-90
2021/12/21 13:42:01;;;;;;;15.70;9.77;;;0.40;90.20;;;;;;4994663;28;20230;-90
2021/12/21 13:44:31;;;;;;;13.77;9.70;;;0.40;90.60;;;;;;5002637;28;20687;-92
2021/12/21 13:47:02;;;;;;;17.33;10.30;;;0.40;90.80;;;;;;5007214;28;20242;-92
2021/12/21 13:49:29;;;;;;;15.83;10.00;;;0.40;90.70;;;;;;4994456;28;20207;-91
2021/12/21 13:51:59;;;;;;;18.43;10.40;;;0.40;90.70;;;;;;4996586;28;20233;-91
2021/12/21 13:54:29;;;;;;;18.57;9.87;;;0.50;90.60;;;;;;4994359;28;20288;-90
2021/12/21 13:56:56;;;;;;;18.17;9.87;;;0.60;90.50;;;;;;4978052;28;20238;-90
2021/12/21 13:59:23;;;;;;;16.03;10.07;;;0.60;90.40;;;;;;5007728;28;20755;-90
2021/12/21 14:02:03;;;;;;;18.13;10.30;;;0.80;90.40;;;;;;4995903;28;20888;-90
2021/12/21 14:04:39;;;;;;;17.47;10.17;;;0.80;90.30;;;;;;4996187;28;20714;-90
2021/12/21 14:15:12;;;;;;;15.90;9.87;;;0.50;90.00;;;;;;4982711;28;20644;-92
2021/12/21 14:17:39;;;;;;;17.47;10.90;;;0.30;90.30;;;;;;5010910;28;21812;-92
2021/12/21 14:20:08;;;;;;;15.77;10.13;;;0.30;90.90;;;;;;5045990;28;20198;-90
2021/12/21 14:22:38;;;;;;;17.10;10.77;;;0.30;90.90;;;;;;5033627;28;20244;-90
2021/12/21 14:25:19;;;;;;;16.57;10.80;;;0.30;90.70;;;;;;5033305;28;20230;-90
2021/12/21 14:27:48;;;;;;;13.83;9.47;;;0.40;90.40;;;;;;5017320;28;20233;-91
2021/12/21 14:30:19;;;;;;;18.77;10.57;;;0.60;90.20;;;;;;5017133;28;20849;-91
2021/12/21 14:33:07;;;;;;;15.67;10.23;;;0.50;90.30;;;;;;5035921;28;20223;-91
2021/12/21 14:35:39;;;;;;;19.17;10.43;;;0.30;91.20;;;;;;5033385;28;20256;-91
2021/12/21 14:38:15;;;;;;;16.03;9.73;;;0.30;91.40;;;;;;5013885;28;20645;-89
2021/12/21 14:40:52;;;;;;;18.40;10.33;;;0.30;91.20;;;;;;5035496;28;20268;-91
2021/12/21 15:01:20;;;;;;;18.97;11.43;;;-0.10;92.00;;;;;;5033156;28;20701;-90
2021/12/21 15:03:50;;;;;;;19.90;11.27;;;-0.20;92.30;;;;;;5033789;28;20228;-90
2021/12/21 15:09:00;;;;;;;17.33;11.30;;;-0.20;92.40;;;;;;5040948;28;20203;-92
2021/12/21 15:11:27;;;;;;;17.80;10.43;;;-0.10;92.40;;;;;;5033892;28;20248;-92
2021/12/21 15:13:58;;;;;;;16.43;10.70;;;-0.20;92.30;;;;;;5028617;28;20211;-91
2021/12/21 15:16:27;;;;;;;16.73;11.07;;;-0.30;92.30;;;;;;5021675;28;20225;-91
2021/12/21 15:21:37;;;;;;;17.83;10.90;;;-0.30;92.20;;;;;;5013883;28;20276;-90
2021/12/21 15:24:13;;;;;;;39.50;23.90;;;-0.30;92.00;;;;;;5033672;28;20318;-91
2021/12/21 15:26:40;;;;;;;19.40;11.37;;;-0.40;92.20;;;;;;5030298;28;20308;-91
2021/12/21 15:29:11;;;;;;;20.80;12.00;;;-0.50;92.40;;;;;;5015016;28;20259;-91
2021/12/21 15:32:04;;;;;;;19.83;11.50;;;-0.60;92.60;;;;;;5039187;28;20229;-92
2021/12/21 15:34:32;;;;;;;19.13;11.43;;;-0.60;92.90;;;;;;5030950;28;20293;-91
2021/12/21 15:39:50;;;;;;;16.80;10.37;;;-0.70;93.20;;;;;;4995381;28;20266;-92
2021/12/21 15:42:41;;;;;;;17.03;10.90;;;-0.70;93.20;;;;;;5018493;28;20227;-91
2021/12/21 15:45:16;;;;;;;19.00;12.10;;;-0.70;93.10;;;;;;5018551;28;20207;-90
2021/12/21 16:13:18;;;;;;;20.37;12.37;;;-0.80;93.90;;;;;;5026478;28;20237;-91
2021/12/21 16:15:45;;;;;;;19.60;12.10;;;-0.90;93.80;;;;;;5035226;28;20241;-91
2021/12/21 16:18:12;;;;;;;22.43;12.60;;;-0.90;93.80;;;;;;5043553;28;20558;-92
2021/12/21 16:23:38;;;;;;;21.53;13.00;;;-1.00;93.80;;;;;;5025923;28;20233;-92
2021/12/21 16:26:25;;;;;;;23.33;12.50;;;-1.00;93.80;;;;;;5014418;28;20203;-94
2021/12/21 16:31:47;;;;;;;19.80;12.50;;;-0.90;93.80;;;;;;5141877;23;20239;-94
2021/12/21 16:37:22;;;;;;;20.07;12.50;;;-1.00;93.80;;;;;;5001444;28;20651;-93
2021/12/21 16:39:49;;;;;;;18.23;12.87;;;-0.90;94.10;;;;;;5019066;28;20207;-89
2021/12/21 16:42:37;;;;;;;20.60;13.30;;;-0.90;93.80;;;;;;5011604;28;20250;-90
2021/12/21 16:45:21;;;;;;;19.73;13.10;;;-0.90;94.10;;;;;;5042337;28;20302;-91
2021/12/21 16:47:51;;;;;;;24.53;13.37;;;-0.90;93.80;;;;;;5024658;28;20219;-89
2021/12/21 16:50:19;;;;;;;21.03;13.30;;;-0.90;93.80;;;;;;5021598;28;20202;-89
2021/12/21 16:58:16;;;;;;;24.20;13.77;;;-0.80;93.80;;;;;;5006006;28;20199;-90
2021/12/21 17:00:44;;;;;;;22.60;14.70;;;-0.70;93.70;;;;;;4991587;28;20234;-85
2021/12/21 17:03:11;;;;;;;21.37;14.30;;;-0.70;93.60;;;;;;5009283;28;20200;-88
2021/12/21 17:11:39;;;;;;;18.43;12.43;;;-0.40;93.20;;;;;;4959299;29;20232;-92
2021/12/21 17:22:31;;;;;;;22.33;14.17;;;-0.10;92.20;;;;;;5003308;28;20227;-90
2021/12/21 17:25:16;;;;;;;19.60;13.37;;;0.00;92.10;;;;;;5024455;28;20229;-89
2021/12/21 17:27:45;;;;;;;18.43;13.23;;;0.00;92.30;;;;;;5040294;28;20221;-93
2021/12/21 17:40:04;;;;;;;19.50;13.33;;;-0.10;92.20;;;;;;5041063;28;20206;-93
2021/12/21 17:49:06;;;;;;;20.57;14.80;;;-0.60;93.50;;;;;;5181885;23;20181;-86
2021/12/21 17:51:41;;;;;;;23.37;14.77;;;-0.70;93.60;;;;;;4980938;28;20222;-93
2021/12/21 18:02:11;;;;;;;21.07;13.87;;;-0.70;93.70;;;;;;4974714;28;20228;-93
2021/12/21 18:04:40;;;;;;;20.33;13.87;;;-0.80;93.80;;;;;;4984051;28;20311;-90
2021/12/21 18:07:07;;;;;;;19.30;14.33;;;-0.80;93.80;;;;;;4965886;28;20236;-89
2021/12/21 18:09:34;;;;;;;20.63;14.37;;;-0.90;93.80;;;;;;4978340;28;20196;-87
2021/12/21 18:12:01;;;;;;;23.60;15.77;;;-1.00;93.80;;;;;;4978674;28;20224;-87
2021/12/21 18:14:28;;;;;;;23.93;14.83;;;-1.00;94.20;;;;;;4979323;28;20215;-84
2021/12/21 18:16:55;;;;;;;24.20;15.57;;;-1.20;94.30;;;;;;4975606;28;20300;-84